Time;durP1;ratioP1;P1;durP2;ratioP2;P2;SDS_P1;SDS_P2;PMS_P1;PMS_P2;Temp;Humidity;BMP_temperature;BMP_pressure;BME280_temperature;BME280_humidity;BME280_pressure;Samples;Min_cycle;Max_cycle;Signal;HPM_P1;HPM_P2
2023/06/22 00:02:18;;;;;;;10.90;9.80;;;18.90;99.90;;;;;;4975194;28;20181;-90
2023/06/22 00:04:44;;;;;;;12.15;10.95;;;19.00;99.90;;;;;;4975382;28;20324;-89
2023/06/22 00:07:10;;;;;;;16.42;12.05;;;19.00;99.90;;;;;;4979807;28;20196;-89
2023/06/22 00:09:36;;;;;;;13.00;11.80;;;19.10;99.90;;;;;;4979877;28;20181;-92
2023/06/22 00:12:03;;;;;;;13.85;11.73;;;19.10;99.90;;;;;;4982158;28;20173;-89
2023/06/22 00:14:29;;;;;;;14.95;12.60;;;19.00;99.90;;;;;;4981412;28;20208;-92
2023/06/22 00:16:57;;;;;;;12.90;11.60;;;19.00;99.90;;;;;;4981919;28;20184;-89
2023/06/22 00:19:23;;;;;;;12.50;11.30;;;18.90;99.90;;;;;;4987441;28;20683;-90
2023/06/22 00:21:53;;;;;;;13.75;12.25;;;18.80;99.90;;;;;;5001996;28;20184;-90
2023/06/22 00:24:21;;;;;;;13.43;12.20;;;18.80;99.90;;;;;;5000171;28;20211;-90
2023/06/22 00:26:48;;;;;;;15.07;11.38;;;18.80;99.90;;;;;;4994413;28;20220;-90
2023/06/22 00:29:15;;;;;;;13.55;12.00;;;18.70;99.90;;;;;;4981040;28;20180;-91
2023/06/22 00:31:43;;;;;;;12.27;11.07;;;18.60;99.90;;;;;;4981276;28;20176;-90
2023/06/22 00:34:09;;;;;;;13.25;11.75;;;18.60;99.90;;;;;;4981339;28;20259;-90
2023/06/22 00:36:36;;;;;;;13.27;11.73;;;18.60;99.90;;;;;;4981582;28;20184;-90
2023/06/22 00:39:02;;;;;;;12.90;11.70;;;18.60;99.90;;;;;;4981492;28;20280;-90
2023/06/22 00:41:29;;;;;;;12.57;11.38;;;18.60;99.90;;;;;;4980872;28;20185;-88
2023/06/22 00:43:56;;;;;;;13.75;12.07;;;18.60;99.90;;;;;;4981097;28;20212;-89
2023/06/22 00:46:22;;;;;;;13.05;11.50;;;18.50;99.90;;;;;;4980875;28;20219;-91
2023/06/22 00:48:50;;;;;;;13.10;11.13;;;18.50;99.90;;;;;;4982512;28;20219;-91
2023/06/22 00:51:16;;;;;;;12.40;11.00;;;18.40;99.90;;;;;;4981996;28;20687;-90
2023/06/22 00:53:43;;;;;;;11.98;10.77;;;18.40;99.90;;;;;;4980541;28;20196;-90
2023/06/22 00:56:11;;;;;;;12.25;10.93;;;18.40;99.90;;;;;;4981886;28;20157;-89
2023/06/22 00:58:41;;;;;;;12.40;11.15;;;18.30;99.90;;;;;;4981235;28;20187;-89
2023/06/22 01:01:07;;;;;;;16.50;12.15;;;18.20;99.90;;;;;;4981220;28;20181;-91
2023/06/22 01:03:33;;;;;;;13.50;10.85;;;18.10;99.90;;;;;;4980899;28;20177;-90
2023/06/22 01:06:10;;;;;;;12.35;11.00;;;18.10;99.90;;;;;;4977757;28;20177;-90
2023/06/22 01:08:52;;;;;;;11.90;10.70;;;18.00;99.90;;;;;;4976909;28;20613;-89
2023/06/22 01:11:45;;;;;;;12.18;10.65;;;18.10;99.90;;;;;;4977043;28;20188;-90
2023/06/22 01:14:45;;;;;;;11.05;9.98;;;18.00;99.90;;;;;;4980146;28;20208;-88
2023/06/22 01:17:13;;;;;;;11.27;9.85;;;18.10;99.90;;;;;;4961649;29;20280;-89
2023/06/22 01:19:48;;;;;;;12.18;10.90;;;18.10;99.90;;;;;;4972863;28;20216;-90
2023/06/22 01:22:17;;;;;;;12.30;10.68;;;18.10;99.90;;;;;;4979716;28;20183;-90
2023/06/22 01:25:07;;;;;;;11.10;10.10;;;18.00;99.90;;;;;;4980442;28;20258;-92
2023/06/22 01:27:41;;;;;;;12.35;10.98;;;18.10;99.90;;;;;;4960394;29;20205;-89
2023/06/22 01:30:10;;;;;;;11.45;10.35;;;18.10;99.90;;;;;;4966797;28;20200;-89
2023/06/22 01:32:38;;;;;;;11.85;10.65;;;18.10;99.90;;;;;;4979971;28;20311;-89
2023/06/22 01:35:06;;;;;;;15.07;12.00;;;18.10;99.90;;;;;;4979840;28;20196;-90
2023/06/22 01:37:36;;;;;;;12.27;10.98;;;18.10;99.90;;;;;;4979380;28;20652;-88
2023/06/22 01:40:05;;;;;;;12.07;10.85;;;18.10;99.90;;;;;;4979718;28;20271;-91
2023/06/22 01:42:32;;;;;;;11.98;10.40;;;18.00;99.90;;;;;;4981484;28;20191;-91
2023/06/22 01:45:00;;;;;;;11.95;10.85;;;17.90;99.90;;;;;;4981169;28;20231;-90
2023/06/22 01:47:27;;;;;;;11.32;10.20;;;17.90;99.90;;;;;;4976572;28;20216;-91
2023/06/22 01:49:54;;;;;;;12.13;10.93;;;17.90;99.90;;;;;;4972141;28;20215;-90
2023/06/22 01:52:21;;;;;;;12.32;11.02;;;17.90;99.90;;;;;;4980162;28;20201;-90
2023/06/22 01:54:48;;;;;;;12.38;10.80;;;17.90;99.90;;;;;;4979699;28;20331;-90
2023/06/22 01:57:17;;;;;;;12.55;10.50;;;18.00;99.90;;;;;;4980255;28;20180;-90
2023/06/22 02:00:04;;;;;;;13.57;10.65;;;17.90;99.90;;;;;;4981654;28;20265;-90
2023/06/22 02:02:44;;;;;;;12.00;10.88;;;17.80;99.90;;;;;;4979825;28;20683;-90
2023/06/22 02:05:11;;;;;;;12.10;10.90;;;17.70;99.90;;;;;;4978718;28;20235;-90
2023/06/22 02:08:08;;;;;;;16.05;11.00;;;17.60;99.90;;;;;;4983874;28;20270;-90
2023/06/22 02:10:37;;;;;;;12.35;10.60;;;17.60;99.90;;;;;;4998649;28;20164;-89
2023/06/22 02:13:06;;;;;;;12.55;11.10;;;17.50;99.90;;;;;;4992902;28;20173;-90
2023/06/22 02:15:33;;;;;;;14.23;10.13;;;17.50;99.90;;;;;;4979178;28;20287;-91
2023/06/22 02:18:00;;;;;;;11.43;10.25;;;17.50;99.90;;;;;;4979215;28;20192;-90
2023/06/22 02:20:26;;;;;;;11.85;10.57;;;17.60;99.90;;;;;;4978313;28;20264;-90
2023/06/22 02:22:52;;;;;;;11.40;10.27;;;17.60;99.90;;;;;;4972471;28;20186;-92
2023/06/22 02:25:18;;;;;;;12.23;10.63;;;17.60;99.90;;;;;;4984149;28;20200;-90
2023/06/22 02:27:45;;;;;;;11.57;10.38;;;17.70;99.90;;;;;;4979356;28;20223;-89
2023/06/22 02:30:14;;;;;;;19.10;14.20;;;17.70;99.90;;;;;;4979822;28;20215;-90
2023/06/22 02:32:41;;;;;;;12.77;11.38;;;17.70;99.90;;;;;;4979144;28;20169;-91
2023/06/22 02:35:08;;;;;;;11.88;10.68;;;17.70;99.90;;;;;;4979105;28;20204;-89
2023/06/22 02:37:41;;;;;;;12.38;11.10;;;17.60;99.90;;;;;;4977666;28;20200;-91
2023/06/22 02:40:10;;;;;;;12.75;11.23;;;17.50;99.90;;;;;;4975526;28;20181;-90
2023/06/22 02:42:39;;;;;;;14.40;10.73;;;17.40;99.90;;;;;;4975199;28;20668;-88
2023/06/22 02:45:06;;;;;;;12.02;10.20;;;17.40;99.90;;;;;;4979076;28;20236;-90
2023/06/22 02:47:32;;;;;;;12.50;10.80;;;17.40;99.90;;;;;;4978948;28;20288;-91
2023/06/22 02:49:58;;;;;;;11.88;10.35;;;17.30;99.90;;;;;;4978742;28;20216;-89
2023/06/22 02:52:24;;;;;;;12.77;10.35;;;17.30;99.90;;;;;;4979956;28;20212;-91
2023/06/22 02:54:50;;;;;;;11.93;9.88;;;17.20;99.90;;;;;;4978010;28;20196;-90
2023/06/22 02:57:16;;;;;;;13.60;10.52;;;17.10;99.90;;;;;;4978693;28;20680;-88
2023/06/22 02:59:42;;;;;;;13.20;9.98;;;17.10;99.90;;;;;;4975172;28;20191;-91
2023/06/22 03:02:09;;;;;;;10.75;9.60;;;17.10;99.90;;;;;;4974922;28;20174;-90
2023/06/22 03:04:35;;;;;;;12.60;9.43;;;16.90;99.90;;;;;;5007003;28;20220;-89
2023/06/22 03:07:01;;;;;;;11.27;9.50;;;16.90;99.90;;;;;;4978616;28;20351;-90
2023/06/22 03:09:28;;;;;;;12.80;9.68;;;16.90;99.90;;;;;;4978522;28;20172;-90
2023/06/22 03:11:54;;;;;;;12.02;9.80;;;16.90;99.90;;;;;;4997633;28;20247;-89
2023/06/22 03:14:20;;;;;;;9.68;8.55;;;16.90;99.90;;;;;;4984890;28;20220;-90
2023/06/22 03:16:46;;;;;;;11.82;9.27;;;16.90;99.90;;;;;;4994946;28;20663;-89
2023/06/22 03:19:12;;;;;;;11.23;9.30;;;17.00;99.90;;;;;;4997469;28;20223;-91
2023/06/22 03:21:39;;;;;;;12.40;9.52;;;17.00;99.90;;;;;;4997523;28;20172;-91
2023/06/22 03:24:08;;;;;;;11.65;10.45;;;17.00;99.90;;;;;;4986659;28;20217;-90
2023/06/22 03:26:35;;;;;;;10.85;9.73;;;17.00;99.90;;;;;;4978748;28;20210;-90
2023/06/22 03:29:01;;;;;;;10.73;8.85;;;17.00;99.90;;;;;;4978125;28;20172;-90
2023/06/22 03:31:26;;;;;;;11.60;8.90;;;17.10;99.90;;;;;;4980122;28;20180;-90
2023/06/22 03:33:52;;;;;;;10.25;9.25;;;17.10;99.90;;;;;;4983774;28;20606;-90
2023/06/22 03:36:18;;;;;;;10.10;8.90;;;17.20;99.90;;;;;;4978164;28;20164;-91
2023/06/22 03:38:47;;;;;;;9.65;8.50;;;17.20;99.90;;;;;;4978738;28;20184;-90
2023/06/22 03:41:13;;;;;;;9.18;8.20;;;17.30;99.90;;;;;;4978134;28;20263;-90
2023/06/22 03:43:39;;;;;;;10.07;8.95;;;17.30;99.90;;;;;;4980095;28;20336;-91
2023/06/22 03:46:05;;;;;;;12.10;8.95;;;17.30;99.90;;;;;;4981752;28;20180;-90
2023/06/22 03:48:32;;;;;;;10.07;8.93;;;17.30;99.90;;;;;;4982311;28;20641;-89
2023/06/22 03:51:03;;;;;;;9.73;8.63;;;17.30;99.90;;;;;;4982946;28;20196;-91
2023/06/22 03:53:32;;;;;;;9.93;8.93;;;17.30;99.90;;;;;;4978038;28;20181;-89
2023/06/22 03:56:04;;;;;;;11.02;8.50;;;17.30;99.90;;;;;;4977872;28;20228;-90
2023/06/22 03:58:32;;;;;;;9.95;8.95;;;17.40;99.90;;;;;;4978776;28;20555;-88
2023/06/22 04:00:59;;;;;;;8.93;8.00;;;17.40;99.90;;;;;;4979157;28;20165;-89
2023/06/22 04:03:25;;;;;;;10.05;9.10;;;17.40;99.90;;;;;;4971064;28;20176;-88
2023/06/22 04:05:51;;;;;;;9.63;8.35;;;17.40;99.90;;;;;;4981072;28;20532;-89
2023/06/22 04:08:18;;;;;;;10.82;8.82;;;17.50;99.90;;;;;;4982726;28;20196;-90
2023/06/22 04:10:44;;;;;;;13.27;8.98;;;17.50;99.90;;;;;;4981637;28;20220;-90
2023/06/22 04:13:10;;;;;;;13.15;9.95;;;17.40;99.90;;;;;;4985112;28;20180;-90
2023/06/22 04:15:39;;;;;;;13.32;9.25;;;17.40;99.90;;;;;;5000704;28;20207;-89
2023/06/22 04:18:05;;;;;;;12.68;9.95;;;17.40;99.90;;;;;;4981013;28;20251;-91
2023/06/22 04:20:33;;;;;;;10.73;8.60;;;17.50;99.90;;;;;;4980278;28;20232;-90
2023/06/22 04:22:59;;;;;;;9.30;8.30;;;17.70;99.90;;;;;;4981159;28;20180;-88
2023/06/22 04:25:25;;;;;;;8.90;8.00;;;17.80;99.90;;;;;;4981996;28;20207;-90
2023/06/22 04:27:51;;;;;;;9.75;8.57;;;18.00;99.90;;;;;;4974831;28;20216;-89
2023/06/22 04:30:17;;;;;;;9.82;7.97;;;18.10;99.90;;;;;;4981441;28;20167;-89
2023/06/22 04:32:45;;;;;;;10.40;8.15;;;18.20;99.90;;;;;;4980765;28;20169;-92
2023/06/22 04:35:12;;;;;;;9.00;8.10;;;18.40;99.90;;;;;;4976388;28;20205;-90
2023/06/22 04:37:39;;;;;;;10.05;8.55;;;18.60;99.90;;;;;;4989399;28;20288;-89
2023/06/22 04:40:06;;;;;;;9.43;8.52;;;18.70;99.90;;;;;;4982168;28;20188;-91
2023/06/22 04:42:35;;;;;;;13.90;9.02;;;18.80;99.90;;;;;;4982941;28;20208;-91
2023/06/22 04:45:02;;;;;;;9.95;8.93;;;18.90;99.90;;;;;;4973339;28;20231;-91
2023/06/22 04:47:32;;;;;;;8.88;7.97;;;19.00;99.90;;;;;;4980981;28;20961;-90
2023/06/22 04:49:59;;;;;;;10.38;8.80;;;19.20;99.90;;;;;;5001399;28;20190;-89
2023/06/22 04:52:28;;;;;;;10.82;8.88;;;19.40;99.90;;;;;;5001004;28;20168;-90
2023/06/22 04:54:57;;;;;;;10.52;8.30;;;19.60;99.90;;;;;;4998561;28;20199;-88
2023/06/22 04:57:30;;;;;;;10.02;7.55;;;19.70;99.90;;;;;;4975460;28;20183;-88
2023/06/22 04:59:56;;;;;;;9.05;8.15;;;19.90;99.90;;;;;;4982520;28;20196;-89
2023/06/22 05:02:27;;;;;;;9.30;8.38;;;20.00;99.90;;;;;;4982249;28;20985;-90
2023/06/22 05:04:56;;;;;;;8.35;7.53;;;20.00;99.90;;;;;;4981536;28;20200;-91
2023/06/22 05:07:29;;;;;;;11.48;8.45;;;20.00;99.90;;;;;;4978450;28;20665;-90
2023/06/22 05:09:55;;;;;;;9.38;7.00;;;20.10;99.90;;;;;;4983827;28;20265;-90
2023/06/22 05:12:22;;;;;;;10.10;7.68;;;20.10;99.90;;;;;;4982908;28;20169;-90
2023/06/22 05:14:48;;;;;;;9.20;7.47;;;20.10;99.90;;;;;;4978195;28;20260;-91
2023/06/22 05:17:22;;;;;;;8.93;7.22;;;20.10;99.90;;;;;;4996759;28;20184;-90
2023/06/22 05:19:51;;;;;;;10.60;7.03;;;20.00;99.90;;;;;;4981608;28;20795;-92
2023/06/22 05:22:17;;;;;;;9.15;7.22;;;20.00;99.90;;;;;;4980154;28;20690;-90
2023/06/22 05:24:43;;;;;;;10.38;7.00;;;20.00;99.90;;;;;;4980282;28;20232;-91
2023/06/22 05:27:11;;;;;;;7.30;6.60;;;20.00;99.90;;;;;;4981492;28;20205;-90
2023/06/22 05:29:39;;;;;;;7.82;6.57;;;20.00;99.90;;;;;;4980957;28;20261;-91
2023/06/22 05:32:12;;;;;;;11.10;6.25;;;20.00;99.90;;;;;;4978349;28;20204;-91
2023/06/22 05:34:43;;;;;;;7.70;6.20;;;20.10;99.90;;;;;;4991217;28;20262;-93
2023/06/22 05:37:10;;;;;;;8.15;6.25;;;20.10;99.90;;;;;;4995812;28;20180;-92
2023/06/22 05:39:39;;;;;;;6.88;6.00;;;20.20;99.90;;;;;;4994103;28;20168;-91
2023/06/22 05:42:06;;;;;;;7.13;6.43;;;20.30;99.90;;;;;;5001524;28;20281;-90
2023/06/22 05:44:33;;;;;;;8.85;6.45;;;20.40;99.90;;;;;;4976377;28;20589;-91
2023/06/22 05:46:59;;;;;;;7.85;6.07;;;20.50;99.90;;;;;;4974335;28;20211;-92
2023/06/22 05:49:29;;;;;;;6.43;5.78;;;20.50;99.90;;;;;;4975030;28;20177;-92
2023/06/22 05:51:56;;;;;;;6.75;6.00;;;20.60;99.90;;;;;;4975497;28;20188;-92
2023/06/22 05:54:22;;;;;;;7.78;6.40;;;20.60;99.90;;;;;;4974455;28;20271;-91
2023/06/22 05:56:48;;;;;;;7.68;6.05;;;20.60;99.90;;;;;;4974787;28;20645;-90
2023/06/22 05:59:14;;;;;;;11.27;5.97;;;20.70;99.90;;;;;;4988883;28;20222;-92
2023/06/22 06:01:41;;;;;;;9.65;5.53;;;20.70;99.90;;;;;;4993860;28;20203;-92
2023/06/22 06:04:10;;;;;;;10.50;6.40;;;20.80;99.90;;;;;;4973747;28;20664;-92
2023/06/22 06:06:36;;;;;;;10.50;6.40;;;20.90;99.90;;;;;;4972739;28;20215;-91
2023/06/22 06:09:04;;;;;;;9.02;5.80;;;20.90;99.90;;;;;;4974199;28;20578;-89
2023/06/22 06:11:30;;;;;;;8.68;5.95;;;21.00;99.90;;;;;;4975866;28;20181;-90
2023/06/22 06:13:56;;;;;;;8.68;6.53;;;21.00;99.90;;;;;;4991473;28;20203;-91
2023/06/22 06:16:22;;;;;;;6.53;5.75;;;21.00;99.90;;;;;;4989765;28;20190;-92
2023/06/22 06:18:51;;;;;;;16.52;6.90;;;21.00;99.90;;;;;;4974051;28;20187;-94
2023/06/22 06:21:17;;;;;;;10.80;5.90;;;21.00;99.90;;;;;;4973491;28;20278;-92
2023/06/22 06:23:42;;;;;;;11.85;6.15;;;21.10;99.90;;;;;;4973655;28;20212;-94
2023/06/22 06:26:08;;;;;;;10.23;6.75;;;21.10;99.90;;;;;;4974126;28;20543;-91
2023/06/22 06:28:35;;;;;;;9.32;6.70;;;21.10;99.90;;;;;;4973887;28;20188;-92
2023/06/22 06:31:01;;;;;;;8.32;6.47;;;21.10;99.90;;;;;;4974129;28;20185;-91
2023/06/22 06:33:27;;;;;;;8.73;6.00;;;21.10;99.90;;;;;;4973130;28;20550;-95
2023/06/22 06:35:53;;;;;;;9.40;6.55;;;21.10;99.90;;;;;;4973308;28;20208;-92
2023/06/22 06:38:18;;;;;;;9.63;5.97;;;21.10;99.90;;;;;;4973512;28;20211;-88
2023/06/22 06:40:45;;;;;;;9.02;6.53;;;21.20;99.90;;;;;;4973437;28;20169;-93
2023/06/22 06:43:10;;;;;;;8.50;6.25;;;21.30;99.90;;;;;;4973141;28;20192;-92
2023/06/22 06:45:36;;;;;;;8.27;6.10;;;21.50;99.90;;;;;;4973164;28;20201;-91
2023/06/22 06:48:02;;;;;;;10.98;6.00;;;21.50;99.90;;;;;;4972921;28;20691;-92
2023/06/22 06:50:28;;;;;;;9.15;5.90;;;21.60;99.90;;;;;;4972759;28;20576;-94
2023/06/22 06:52:54;;;;;;;8.65;5.80;;;21.70;99.90;;;;;;4973457;28;20735;-94
2023/06/22 06:55:20;;;;;;;8.70;6.00;;;21.80;99.90;;;;;;4974904;28;20220;-92
2023/06/22 06:57:49;;;;;;;10.00;6.00;;;21.80;99.90;;;;;;4973484;28;20264;-91
2023/06/22 07:00:16;;;;;;;7.88;5.70;;;21.90;99.90;;;;;;4973476;28;20185;-93
2023/06/22 07:02:45;;;;;;;8.30;6.40;;;22.10;99.90;;;;;;4977253;28;20208;-92
2023/06/22 07:05:12;;;;;;;7.45;5.68;;;22.20;99.90;;;;;;4978276;28;20212;-89
2023/06/22 07:07:41;;;;;;;8.00;5.75;;;22.30;99.90;;;;;;4977895;28;20203;-93
2023/06/22 07:10:08;;;;;;;8.45;6.00;;;22.40;99.90;;;;;;4977987;28;20181;-93
2023/06/22 07:12:34;;;;;;;7.90;6.30;;;22.50;99.90;;;;;;4975591;28;20169;-94
2023/06/22 07:15:05;;;;;;;8.30;5.80;;;22.50;99.90;;;;;;4977753;28;20207;-94
2023/06/22 07:17:31;;;;;;;6.50;5.72;;;22.60;99.90;;;;;;4974974;28;20783;-94
2023/06/22 07:19:57;;;;;;;10.52;6.10;;;22.60;99.90;;;;;;4975663;28;20727;-92
2023/06/22 07:22:24;;;;;;;8.57;6.05;;;22.70;99.90;;;;;;4997024;28;20171;-94
2023/06/22 07:24:52;;;;;;;12.70;6.32;;;22.70;99.90;;;;;;4996108;28;20203;-93
2023/06/22 07:27:19;;;;;;;9.20;7.22;;;22.70;99.90;;;;;;4994699;28;20244;-93
2023/06/22 07:29:56;;;;;;;9.38;6.10;;;22.80;99.90;;;;;;4994992;28;20187;-93
2023/06/22 07:32:36;;;;;;;7.40;5.90;;;22.90;99.90;;;;;;4960008;28;20183;-91
2023/06/22 07:35:02;;;;;;;9.07;5.88;;;23.00;99.90;;;;;;4977951;28;20204;-92
2023/06/22 07:37:29;;;;;;;7.93;6.20;;;23.00;99.90;;;;;;4980234;28;20179;-93
2023/06/22 07:39:58;;;;;;;9.20;5.68;;;23.10;99.90;;;;;;4980917;28;20270;-93
2023/06/22 07:42:25;;;;;;;8.48;6.00;;;23.10;99.90;;;;;;4973339;28;20628;-94
2023/06/22 07:44:52;;;;;;;6.68;5.53;;;23.10;99.90;;;;;;4972552;28;20216;-92
2023/06/22 07:47:19;;;;;;;10.88;6.10;;;23.20;99.90;;;;;;4990552;28;20209;-91
2023/06/22 07:49:46;;;;;;;9.77;5.70;;;23.20;99.90;;;;;;4992559;28;20180;-94
2023/06/22 07:52:12;;;;;;;8.32;5.78;;;23.30;99.90;;;;;;4971338;28;20200;-92
2023/06/22 07:54:38;;;;;;;11.13;6.00;;;23.30;99.90;;;;;;4969758;28;20201;-93
2023/06/22 07:57:04;;;;;;;7.57;6.40;;;23.40;99.90;;;;;;4973277;28;20168;-91
2023/06/22 07:59:30;;;;;;;8.52;5.85;;;23.50;99.90;;;;;;4973150;28;20169;-92
2023/06/22 08:01:56;;;;;;;8.80;6.55;;;23.60;99.90;;;;;;4973122;28;20195;-92
2023/06/22 08:04:22;;;;;;;9.13;6.90;;;23.70;99.90;;;;;;4973694;28;20215;-93
2023/06/22 08:06:48;;;;;;;10.27;7.15;;;23.70;99.90;;;;;;4978823;28;20211;-95
2023/06/22 08:09:14;;;;;;;10.52;7.22;;;23.80;99.90;;;;;;4993376;28;20172;-92
2023/06/22 08:11:41;;;;;;;8.77;7.63;;;23.90;99.90;;;;;;4975545;28;20211;-92
2023/06/22 08:14:06;;;;;;;9.05;7.85;;;24.10;99.90;;;;;;4958146;28;20236;-90
2023/06/22 08:16:35;;;;;;;10.35;7.22;;;24.30;99.90;;;;;;4973220;28;20161;-92
2023/06/22 08:19:00;;;;;;;8.88;7.75;;;24.40;99.90;;;;;;4973343;28;20260;-93
2023/06/22 08:21:26;;;;;;;8.88;7.90;;;24.40;99.90;;;;;;4973866;28;20271;-93
2023/06/22 08:23:52;;;;;;;9.80;8.02;;;24.50;99.90;;;;;;4974104;28;20201;-91
2023/06/22 08:26:18;;;;;;;9.90;8.20;;;24.50;99.90;;;;;;4973830;28;20237;-95
2023/06/22 08:28:44;;;;;;;10.27;7.97;;;24.50;99.90;;;;;;4972988;28;20189;-91
2023/06/22 08:31:12;;;;;;;9.40;8.43;;;24.50;99.90;;;;;;4976696;28;20188;-91
2023/06/22 08:33:38;;;;;;;13.23;7.88;;;24.50;99.90;;;;;;4978083;28;20195;-93
2023/06/22 08:36:06;;;;;;;8.60;7.80;;;24.60;99.90;;;;;;4976830;28;20263;-93
2023/06/22 08:38:32;;;;;;;8.30;7.45;;;24.60;99.90;;;;;;4978729;28;20677;-95
2023/06/22 08:41:00;;;;;;;8.77;7.97;;;24.70;99.90;;;;;;4977829;28;20188;-92
2023/06/22 08:43:27;;;;;;;9.45;8.32;;;24.80;99.90;;;;;;4983318;28;20588;-91
2023/06/22 08:45:53;;;;;;;9.75;8.68;;;24.80;99.90;;;;;;4997840;28;20239;-94
2023/06/22 08:48:19;;;;;;;9.15;8.27;;;24.80;99.90;;;;;;4997830;28;20207;-95
2023/06/22 08:50:46;;;;;;;10.85;8.35;;;24.80;99.90;;;;;;4998552;28;20234;-93
2023/06/22 08:53:11;;;;;;;9.52;8.52;;;24.80;99.90;;;;;;4996396;28;20268;-93
2023/06/22 08:55:37;;;;;;;8.90;8.00;;;24.80;99.90;;;;;;4978128;28;20282;-93
2023/06/22 08:58:03;;;;;;;9.45;8.50;;;24.80;99.90;;;;;;4979878;28;20266;-94
2023/06/22 09:00:32;;;;;;;9.40;8.50;;;24.90;99.90;;;;;;4978967;28;20192;-92
2023/06/22 09:02:59;;;;;;;12.80;8.88;;;25.00;99.90;;;;;;4977833;28;20636;-92
2023/06/22 09:05:26;;;;;;;9.25;8.27;;;25.00;99.90;;;;;;4961538;28;20738;-93
2023/06/22 09:07:58;;;;;;;9.63;8.45;;;25.00;99.90;;;;;;4977735;28;20211;-95
2023/06/22 09:10:26;;;;;;;9.77;8.77;;;25.00;99.90;;;;;;4978554;28;20177;-92
2023/06/22 09:12:52;;;;;;;10.00;9.00;;;25.00;99.90;;;;;;4976323;28;20180;-93
2023/06/22 09:15:18;;;;;;;10.88;9.07;;;25.10;99.90;;;;;;4976244;28;20279;-94
2023/06/22 09:17:46;;;;;;;11.50;9.13;;;25.20;99.90;;;;;;4975872;28;20172;-92
2023/06/22 09:20:12;;;;;;;10.93;9.40;;;25.10;99.90;;;;;;4975741;28;20251;-92
2023/06/22 09:22:38;;;;;;;11.25;9.27;;;25.10;99.90;;;;;;4975822;28;20216;-93
2023/06/22 09:25:05;;;;;;;12.55;9.18;;;25.10;99.90;;;;;;4975884;28;20204;-94
2023/06/22 09:27:30;;;;;;;9.82;8.82;;;25.20;99.90;;;;;;4975757;28;20698;-92
2023/06/22 09:29:58;;;;;;;12.93;9.18;;;25.30;99.90;;;;;;4976013;28;20177;-93
2023/06/22 09:32:25;;;;;;;9.80;8.80;;;25.40;99.90;;;;;;4975821;28;20520;-94
2023/06/22 09:34:51;;;;;;;11.18;8.85;;;25.40;99.90;;;;;;4976249;28;20193;-93
2023/06/22 09:37:17;;;;;;;11.05;9.30;;;25.40;99.90;;;;;;4975534;28;20177;-91
2023/06/22 09:39:42;;;;;;;10.18;9.20;;;25.50;99.90;;;;;;4975607;28;20181;-92
2023/06/22 09:42:08;;;;;;;10.40;8.80;;;25.50;99.90;;;;;;4976900;28;20308;-92
2023/06/22 09:44:34;;;;;;;9.68;8.77;;;25.60;99.90;;;;;;4975210;28;20267;-93
2023/06/22 09:47:00;;;;;;;8.70;7.90;;;25.70;99.90;;;;;;4975417;28;20696;-93
2023/06/22 09:49:26;;;;;;;13.07;9.05;;;26.00;99.90;;;;;;4975336;28;20255;-94
2023/06/22 09:51:52;;;;;;;9.52;8.45;;;26.30;99.90;;;;;;4975208;28;20182;-93
2023/06/22 09:54:18;;;;;;;9.80;8.23;;;26.50;99.90;;;;;;4975154;28;20200;-92
2023/06/22 09:56:45;;;;;;;9.10;8.20;;;26.70;99.90;;;;;;4974875;28;20725;-92
2023/06/22 09:59:10;;;;;;;9.35;8.25;;;26.70;99.90;;;;;;4975087;28;20200;-92
2023/06/22 10:01:36;;;;;;;11.60;8.30;;;26.80;99.90;;;;;;4975164;28;20208;-92
2023/06/22 10:04:02;;;;;;;9.23;8.15;;;26.80;99.90;;;;;;4974730;28;20236;-91
2023/06/22 10:06:28;;;;;;;11.13;9.10;;;26.80;99.90;;;;;;4975071;28;20183;-91
2023/06/22 10:08:54;;;;;;;10.80;8.75;;;26.70;99.90;;;;;;4974123;28;20271;-92
2023/06/22 10:11:20;;;;;;;9.20;8.32;;;26.70;99.90;;;;;;4975004;28;20204;-93
2023/06/22 10:13:46;;;;;;;10.65;9.65;;;26.60;99.90;;;;;;4974674;28;20203;-93
2023/06/22 10:16:11;;;;;;;8.98;8.18;;;26.70;99.90;;;;;;4974965;28;20700;-94
2023/06/22 10:18:37;;;;;;;10.77;8.60;;;26.70;99.90;;;;;;4974804;28;20529;-92
2023/06/22 10:21:03;;;;;;;11.77;9.18;;;26.80;99.90;;;;;;4974822;28;20243;-93
2023/06/22 10:23:29;;;;;;;10.50;7.88;;;26.90;99.90;;;;;;4974533;28;20275;-93
2023/06/22 10:25:57;;;;;;;9.57;8.40;;;26.90;99.90;;;;;;4975324;28;20203;-93
2023/06/22 10:28:23;;;;;;;9.45;8.55;;;26.80;99.90;;;;;;4974891;28;20747;-92
2023/06/22 10:30:49;;;;;;;9.32;8.32;;;26.90;99.90;;;;;;4974874;28;20203;-94
2023/06/22 10:33:20;;;;;;;8.50;7.65;;;27.10;99.90;;;;;;4975058;28;20173;-94
2023/06/22 10:35:52;;;;;;;8.25;7.55;;;27.20;99.90;;;;;;4975189;28;20184;-95
2023/06/22 10:38:27;;;;;;;8.80;7.95;;;27.40;99.90;;;;;;4975042;28;20177;-93
2023/06/22 10:40:53;;;;;;;10.55;8.80;;;27.50;99.90;;;;;;4975441;28;20180;-94
2023/06/22 10:43:19;;;;;;;9.13;8.23;;;27.70;99.90;;;;;;4975442;28;20258;-94
2023/06/22 10:45:48;;;;;;;10.40;8.48;;;27.70;99.90;;;;;;4975032;28;20184;-94
2023/06/22 10:48:14;;;;;;;11.05;9.23;;;27.70;99.90;;;;;;4975827;28;20200;-93
2023/06/22 10:50:40;;;;;;;9.77;8.85;;;27.70;99.90;;;;;;4974559;28;20516;-93
2023/06/22 10:53:05;;;;;;;10.55;8.52;;;27.80;99.80;;;;;;4974077;28;20176;-94
2023/06/22 10:55:31;;;;;;;10.13;8.60;;;28.00;99.90;;;;;;4975073;28;20867;-95
2023/06/22 10:57:57;;;;;;;8.20;7.40;;;28.10;99.50;;;;;;4974491;28;20177;-93
2023/06/22 11:00:23;;;;;;;9.52;8.52;;;28.20;99.80;;;;;;4973555;28;20183;-95
2023/06/22 11:02:49;;;;;;;8.60;7.80;;;28.30;99.10;;;;;;4974321;28;20180;-93
2023/06/22 11:05:15;;;;;;;9.35;7.80;;;28.30;99.30;;;;;;4974193;28;20197;-94
2023/06/22 11:07:44;;;;;;;13.88;8.43;;;28.30;99.00;;;;;;4973974;28;20203;-93
2023/06/22 11:10:11;;;;;;;9.07;8.07;;;28.40;99.30;;;;;;4973505;28;20176;-93
2023/06/22 11:12:38;;;;;;;10.30;8.15;;;28.20;99.50;;;;;;4974474;28;20259;-94
2023/06/22 11:15:04;;;;;;;8.23;7.20;;;27.90;99.00;;;;;;4973862;28;20830;-92
2023/06/22 11:17:30;;;;;;;8.02;7.22;;;27.60;99.20;;;;;;4973998;28;20219;-94
2023/06/22 11:19:55;;;;;;;10.55;7.57;;;27.40;99.80;;;;;;4973770;28;20252;-92
2023/06/22 11:22:21;;;;;;;8.80;7.60;;;27.20;99.70;;;;;;4974080;28;20250;-94
2023/06/22 11:24:47;;;;;;;9.15;8.25;;;27.00;99.90;;;;;;4974131;28;20276;-93
2023/06/22 11:27:14;;;;;;;8.88;7.97;;;26.80;99.90;;;;;;4974062;28;20205;-93
2023/06/22 11:29:44;;;;;;;9.07;8.25;;;26.60;99.90;;;;;;4974565;28;20177;-93
2023/06/22 11:32:24;;;;;;;14.02;9.25;;;26.50;99.90;;;;;;4975082;28;20173;-93
2023/06/22 11:34:52;;;;;;;12.25;9.35;;;26.30;99.90;;;;;;4975702;28;20656;-95
2023/06/22 11:37:21;;;;;;;11.20;9.25;;;26.20;99.90;;;;;;4975617;28;20638;-95
2023/06/22 11:39:47;;;;;;;10.13;9.10;;;26.00;99.90;;;;;;4974767;28;20704;-96
2023/06/22 11:42:15;;;;;;;10.95;8.63;;;25.90;99.90;;;;;;4974455;28;20231;-95
2023/06/22 11:44:51;;;;;;;10.07;9.15;;;25.90;99.90;;;;;;4974378;28;20200;-94
2023/06/22 11:47:25;;;;;;;9.40;8.50;;;26.00;99.90;;;;;;4974448;28;20687;-93
2023/06/22 11:49:51;;;;;;;12.93;9.15;;;26.10;99.90;;;;;;4974416;28;20223;-94
2023/06/22 11:52:17;;;;;;;9.75;8.73;;;26.30;99.90;;;;;;4973615;28;20173;-95
2023/06/22 11:54:43;;;;;;;9.40;8.50;;;26.50;99.90;;;;;;4973550;28;20608;-94
2023/06/22 11:57:09;;;;;;;11.98;9.65;;;26.80;99.90;;;;;;4973746;28;20180;-94
2023/06/22 11:59:35;;;;;;;10.18;8.75;;;27.10;99.90;;;;;;4974216;28;20243;-94
2023/06/22 12:02:01;;;;;;;10.63;9.60;;;27.40;99.90;;;;;;4973564;28;20173;-93
2023/06/22 12:04:28;;;;;;;11.32;8.98;;;27.50;99.90;;;;;;4976296;28;20201;-93
2023/06/22 12:07:06;;;;;;;9.43;8.40;;;27.50;99.90;;;;;;4978256;28;20204;-94
2023/06/22 12:09:45;;;;;;;9.30;8.35;;;27.60;99.90;;;;;;4978129;28;20200;-92
2023/06/22 12:12:23;;;;;;;7.95;7.15;;;27.80;99.90;;;;;;4978141;28;20700;-93
2023/06/22 12:15:03;;;;;;;8.27;6.65;;;27.90;99.90;;;;;;4977861;28;20210;-92
2023/06/22 12:17:28;;;;;;;10.07;7.25;;;28.10;99.90;;;;;;4977985;28;20184;-93
2023/06/22 12:20:02;;;;;;;11.38;7.03;;;28.20;99.90;;;;;;4976414;28;20645;-93
2023/06/22 12:22:27;;;;;;;8.63;6.93;;;28.40;98.20;;;;;;4977672;28;20173;-92
2023/06/22 12:24:56;;;;;;;8.65;6.72;;;28.40;99.10;;;;;;4978061;28;21039;-93
2023/06/22 12:27:22;;;;;;;7.88;6.70;;;28.40;98.10;;;;;;4977639;28;20215;-93
2023/06/22 12:29:50;;;;;;;7.65;6.93;;;28.40;99.20;;;;;;4978661;28;20173;-92
2023/06/22 12:32:17;;;;;;;9.43;6.65;;;28.50;98.40;;;;;;4958556;29;20180;-92
2023/06/22 12:34:44;;;;;;;7.60;6.90;;;28.60;98.30;;;;;;4956790;28;20688;-94
2023/06/22 12:37:17;;;;;;;7.15;6.45;;;28.90;97.80;;;;;;4958502;28;20268;-92
2023/06/22 12:39:44;;;;;;;7.50;6.57;;;29.10;97.00;;;;;;4958562;28;20531;-94
2023/06/22 12:42:11;;;;;;;7.40;6.60;;;29.20;97.30;;;;;;4996969;28;20175;-92